METAR - Iceland

Last updated 17.02.2020 - at. 19:37

SIGMET for the last six hours

No SIGMET messages last 6 hours.

METAR from the last three hours

AerodromeTimeMessage
BIAR2020-02-17 19.00METAR BIAR 171900Z 33012KT 5000 -SN SCT011 BKN013 OVC023 M00/M01 Q0985 R01/590095 RMK WIND VADLAHEIDI //////KT RWY SANDED
BIAR2020-02-17 18.00METAR BIAR 171800Z 34013KT 2500 -SN VV008 M00/M01 Q0984 R01/790095 RMK WIND VADLAHEIDI //////KT
BIAR2020-02-17 17.00METAR BIAR 171700Z 34011KT 2500 -SN VV010 M00/M01 Q0984 R01/790095 RMK WIND VADLAHEIDI //////KT
BIEG2020-02-17 19.00METAR BIEG 171900Z 36017KT 3000 -SN VV006 00/00 Q0979 R04/590294
BIEG2020-02-17 18.00METAR BIEG 171800Z 35009KT 1700 SN VV005 00/M00 Q0979 R04/590295
BIEG2020-02-17 17.00METAR BIEG 171700Z 36005KT 1000 SN VV006 M00/M00 Q0978 R04/490295
BIHN2020-02-17 19.00METAR BIHN 171900Z 33015KT 9999 FEW035 SCT080 02/M04 Q0978
BIHN2020-02-17 18.00METAR BIHN 171800Z 35018KT 9999 FEW035 02/M04 Q0978
BIHN2020-02-17 17.10METAR BIHN 171710Z 34018KT 9999 FEW035 02/M04 Q0978
BIIS2020-02-17 17.00METAR BIIS 171700Z 04018KT 9000 SHSN FEW015 OVC022 M00/M03 Q0987 R88/490133
BIKF2020-02-17 19.30METAR BIKF 171930Z 06008KT 020V090 CAVOK 01/M02 Q0983
BIKF2020-02-17 19.00METAR COR BIKF 171900Z 04014KT CAVOK 01/M02 Q0982
BIKF2020-02-17 19.00METAR COR BIKF 171900Z 04014KT 9999 FEW100 BKN240 01/M02 Q0982
BIKF2020-02-17 19.00METAR BIKF 171900Z 04014KT 9999 BKN024 FEW100 01/M02 Q0982
BIKF2020-02-17 18.30METAR BIKF 171830Z 04016KT CAVOK 01/M02 Q0982
BIKF2020-02-17 18.00METAR BIKF 171800Z 04018KT CAVOK 01/M02 Q0981
BIKF2020-02-17 17.30METAR BIKF 171730Z 04016KT CAVOK 02/M02 Q0981
BIKF2020-02-17 17.00METAR BIKF 171700Z 04017KT CAVOK 02/M02 Q0981
BIRK2020-02-17 19.00METAR BIRK 171900Z 08011KT CAVOK 02/M06 Q0982
BIRK2020-02-17 18.00METAR BIRK 171800Z 08008KT 9999 FEW025 03/M05 Q0981
BIRK2020-02-17 17.00METAR BIRK 171700Z 02007KT 9999 FEW024 03/M04 Q0981
BIVM2020-02-17 17.00METAR BIVM 171700Z 20008KT 9999 FEW020 03/M01 Q0977





Other related web sites


This website is built with Eplica CMS